KTUP/TUP METAR and TAF weather

Enter ICAO airport designator
Station Type Date Time Source
KTUP METAR 2019/08/20 08:53 UTC NOAA

KTUP 200853Z AUTO 01003KT 9SM CLR 23/22 A3004 RMK AO2 SLP168 T02330217 55001 $


Station Type Date Time Source
KTUP Decoded METAR 2019/08/20 08:53 UTC NOAA

TUPELO REGIONAL AIRPORT, MS, United States (KTUP) 34-16N 88-46W 105M
Aug 20, 2019 - 04:53 AM EDT / 2019.08.20 0853 UTC
Wind: from the N (010 degrees) at 3 MPH (3 KT):0
Visibility: 9 mile(s):0
Sky conditions: clear
Temperature: 73.9 F (23.3 C)
Dew Point: 71.1 F (21.7 C)
Relative Humidity: 90%
Pressure (altimeter): 30.04 in. Hg (1017 hPa)
Pressure tendency: 0.00 inches (0.1 hPa) lower than three hours ago
ob: KTUP 200853Z AUTO 01003KT 9SM CLR 23/22 A3004 RMK AO2 SLP168 T02330217 55001
cycle: 9

Station Type Date Time Source
KTUP TAF 2019/08/20 08:10 UTC NOAA

TAF
AMD KTUP 200808Z 2008/2106 00000KT P6SM FEW250
FM201500 18005KT P6SM SCT030
FM201900 20005KT P6SM VCSH SCT040 SCT250
FM210100 VRB03KT P6SM SCT250

Example: see airport list